Laramie Regional Airport
KLAR : now visible

Aeroporto :











RITROVATECI SU...

 
LOGIN :

Iscrizione | Disclaimer

   EN    FR    IT 

 









Sommario :    VFR   VFR Marginale   IFR   IFR Intensivo   IFR Molto Intensivo
Visibilità : 
Base nubi : 
>= 8 km
>= 3000ft
5 / 8 km
1000 / 3000 ft
1500m / 5 km
500 / 1000 ft
800 / 1500m
200 / 500 ft
< 800m
< 200 ft
Simboli :   Temporali  Nebbia  Neve Forte  Precipitazioni Forti  Vento > 20 kt






- Altitudine del aeroporto : 7284 ft
- Codice IATA : LAR


KLAR - Laramie Regional

ULTIMO METAR :
  • 311953Z AUTO 25016G24KT 10SM FEW080 27/02 A3017 RMK AO2 PK WND 25026/1941 SLP097 T02670022

METARs OBSOLETI :
  • 311853Z AUTO 24012G25KT 10SM FEW080 26/04 A3019 RMK AO2 PK WND 27028/1835 SLP111 T02610039
  • 311753Z AUTO 25017G25KT 10SM CLR 26/04 A3020 RMK AO2 PK WND 25029/1700 SLP112 T02560044 10256 20094 55003

TAF KLAR
Valido dal 31 a 18 ore il 01 a 18 ore UTC


311725Z 3118/0118 25015G25KT P6SM FEW150
FM312200 22020G30KT P6SM VCSH OVC100
FM010100 21010G20KT P6SM OVC100
FM010600 21008KT P6SM SKC
FIR KZDV / America del Nord



MetMap, La meteo Aeronautica in un colpo d'occhio ! - Copyright ORBIFLY Dicembre 2007 - Disclaimer

ORBIFLY MET'MAP TEAM :

Programmazione e sviluppo : Alexandra Zaïnal
Concezione : Baudouin d'Aumeries
Aiuto per la programmazione : Marc-Olivier Méhu
Supporto tecnico e logistico : Manuel Goepfert
Aiuto per la traduzione : Arnaldo La Scala

Contatto : metmap@orbifly.com




FONTI E CREDITI :

   NOAA       Earth
Advisory